Time;durP1;ratioP1;P1;durP2;ratioP2;P2;SDS_P1;SDS_P2;PMS_P1;PMS_P2;Temp;Humidity;BMP_temperature;BMP_pressure;BME280_temperature;BME280_humidity;BME280_pressure;Samples;Min_cycle;Max_cycle;Signal;HPM_P1;HPM_P2
2022/06/27 00:02:03;;;;;;;5.40;3.90;;;17.70;99.90;;;;;;5088010;28;20036;-78
2022/06/27 00:04:29;;;;;;;5.75;3.58;;;17.70;99.90;;;;;;5050760;28;20044;-78
2022/06/27 00:06:54;;;;;;;7.32;4.30;;;17.70;99.90;;;;;;5052829;28;20063;-78
2022/06/27 00:09:20;;;;;;;5.95;4.75;;;17.80;99.90;;;;;;5071712;28;20048;-77
2022/06/27 00:11:46;;;;;;;7.70;4.95;;;17.60;99.90;;;;;;5068714;28;20040;-77
2022/06/27 00:14:14;;;;;;;6.55;4.90;;;17.60;99.90;;;;;;5073062;28;20043;-77
2022/06/27 00:16:39;;;;;;;7.80;5.03;;;17.90;99.90;;;;;;5086997;28;20051;-77
2022/06/27 00:19:05;;;;;;;5.97;4.85;;;17.90;99.90;;;;;;5055700;28;20039;-77
2022/06/27 00:21:31;;;;;;;7.15;4.65;;;17.60;99.90;;;;;;5086619;28;20040;-77
2022/06/27 00:23:56;;;;;;;6.10;5.47;;;17.60;99.90;;;;;;5090188;28;20050;-77
2022/06/27 00:26:22;;;;;;;6.90;6.40;;;17.50;99.90;;;;;;5068665;28;20115;-77
2022/06/27 00:28:48;;;;;;;7.15;5.95;;;17.50;99.90;;;;;;5087679;28;20040;-77
2022/06/27 00:31:13;;;;;;;6.78;6.10;;;17.50;99.90;;;;;;5050918;28;20079;-77
2022/06/27 00:33:39;;;;;;;6.72;5.80;;;17.50;99.90;;;;;;5052582;28;20449;-77
2022/06/27 00:36:05;;;;;;;8.43;6.10;;;17.40;99.90;;;;;;5071659;28;20092;-77
2022/06/27 00:38:31;;;;;;;8.98;6.30;;;17.40;99.90;;;;;;5067859;28;20518;-77
2022/06/27 00:40:56;;;;;;;8.35;6.70;;;17.60;99.90;;;;;;5105774;28;20098;-77
2022/06/27 00:43:22;;;;;;;6.40;5.65;;;17.50;99.90;;;;;;5067859;28;20050;-77
2022/06/27 00:45:48;;;;;;;7.13;6.03;;;17.40;99.90;;;;;;5053367;28;20533;-77
2022/06/27 00:48:13;;;;;;;6.47;5.88;;;17.50;99.90;;;;;;5085468;28;20488;-77
2022/06/27 00:50:40;;;;;;;7.60;6.78;;;17.50;99.90;;;;;;5051672;28;20048;-77
2022/06/27 00:53:07;;;;;;;7.40;5.55;;;17.50;99.90;;;;;;5072348;28;20182;-77
2022/06/27 00:55:33;;;;;;;6.93;6.03;;;17.50;99.90;;;;;;5067674;28;20051;-77
2022/06/27 00:58:01;;;;;;;9.23;6.75;;;17.50;99.90;;;;;;5054474;28;20594;-77
2022/06/27 01:00:27;;;;;;;7.57;6.18;;;17.60;99.90;;;;;;5051298;28;20062;-77
2022/06/27 01:02:52;;;;;;;11.00;6.80;;;17.60;99.90;;;;;;5071910;28;20047;-78
2022/06/27 01:05:19;;;;;;;6.53;5.78;;;17.50;99.90;;;;;;5049622;28;20051;-78
2022/06/27 01:07:44;;;;;;;9.25;6.75;;;18.30;99.90;;;;;;5069071;28;20044;-77
2022/06/27 01:10:10;;;;;;;7.70;7.00;;;17.50;99.90;;;;;;5066269;28;20069;-77
2022/06/27 01:12:40;;;;;;;8.57;7.47;;;17.40;99.90;;;;;;5049996;28;20054;-77
2022/06/27 01:15:06;;;;;;;8.27;7.45;;;17.50;99.90;;;;;;5070221;28;20089;-77
2022/06/27 01:17:34;;;;;;;8.60;7.80;;;17.40;99.90;;;;;;5071021;28;20032;-77
2022/06/27 01:19:59;;;;;;;8.85;7.20;;;18.20;99.90;;;;;;5067226;28;20384;-77
2022/06/27 01:22:25;;;;;;;10.15;7.53;;;17.40;99.90;;;;;;5054831;28;20047;-77
2022/06/27 01:24:51;;;;;;;6.85;6.20;;;17.50;99.90;;;;;;5067453;28;20045;-77
2022/06/27 01:27:16;;;;;;;8.02;6.68;;;17.50;99.90;;;;;;5070056;28;20036;-77
2022/06/27 01:29:42;;;;;;;7.18;6.43;;;17.90;99.90;;;;;;5068832;28;20067;-77
2022/06/27 01:32:08;;;;;;;10.55;8.07;;;17.60;99.90;;;;;;5068705;28;20040;-77
2022/06/27 01:34:35;;;;;;;9.32;7.55;;;17.60;99.90;;;;;;5054208;28;20043;-77
2022/06/27 01:37:00;;;;;;;9.02;8.02;;;17.80;99.90;;;;;;5067951;28;20428;-77
2022/06/27 01:39:27;;;;;;;8.15;7.30;;;17.60;99.90;;;;;;5104329;28;20052;-77
2022/06/27 01:41:55;;;;;;;9.30;6.82;;;17.60;99.90;;;;;;5067589;28;20037;-77
2022/06/27 01:44:23;;;;;;;8.10;6.88;;;17.50;99.90;;;;;;5048613;28;20118;-77
2022/06/27 01:46:53;;;;;;;9.40;7.38;;;17.50;99.90;;;;;;5085451;28;20048;-77
2022/06/27 01:49:19;;;;;;;7.97;7.18;;;17.50;99.90;;;;;;5068996;28;20092;-77
2022/06/27 01:51:50;;;;;;;9.05;7.95;;;18.20;99.90;;;;;;5085229;28;20375;-77
2022/06/27 01:54:19;;;;;;;11.93;8.40;;;17.50;99.90;;;;;;5051261;28;20087;-78
2022/06/27 01:56:46;;;;;;;8.80;8.10;;;17.40;99.90;;;;;;5088022;28;20044;-77
2022/06/27 01:59:14;;;;;;;10.45;9.00;;;17.40;99.90;;;;;;5050473;28;20047;-78
2022/06/27 02:01:41;;;;;;;10.45;9.43;;;17.40;99.90;;;;;;5052355;28;20098;-77
2022/06/27 02:04:08;;;;;;;10.70;9.50;;;17.40;99.90;;;;;;5084429;28;20040;-78
2022/06/27 02:06:33;;;;;;;12.13;10.38;;;17.30;99.90;;;;;;5085642;28;20114;-78
2022/06/27 02:09:04;;;;;;;12.73;9.90;;;17.60;99.90;;;;;;5065333;28;20380;-78
2022/06/27 02:11:30;;;;;;;11.90;10.10;;;17.20;99.90;;;;;;5085750;28;20464;-78
2022/06/27 02:13:57;;;;;;;9.93;8.93;;;17.20;99.90;;;;;;5080275;28;20051;-77
2022/06/27 02:16:23;;;;;;;11.10;8.40;;;17.10;99.90;;;;;;5086815;28;20464;-78
2022/06/27 02:18:49;;;;;;;9.43;7.35;;;18.00;99.90;;;;;;5064637;28;20028;-78
2022/06/27 02:21:22;;;;;;;8.90;7.95;;;17.90;99.90;;;;;;5085860;28;20043;-78
2022/06/27 02:23:49;;;;;;;10.15;9.15;;;17.20;99.90;;;;;;5064365;28;20036;-77
2022/06/27 02:26:15;;;;;;;11.73;9.20;;;17.20;99.90;;;;;;5066844;28;20047;-78
2022/06/27 02:28:43;;;;;;;8.32;7.60;;;17.10;99.90;;;;;;5068191;28;20108;-78
2022/06/27 02:31:10;;;;;;;7.60;6.90;;;17.10;99.90;;;;;;5049594;28;20395;-78
2022/06/27 02:33:39;;;;;;;8.45;7.55;;;16.70;99.90;;;;;;5068358;28;20068;-78
2022/06/27 02:36:06;;;;;;;8.18;6.80;;;17.20;99.90;;;;;;5053156;28;20121;-77
2022/06/27 02:38:32;;;;;;;9.10;8.35;;;17.30;99.90;;;;;;5086058;28;20387;-78
2022/06/27 02:41:01;;;;;;;13.10;8.27;;;17.30;99.90;;;;;;5061530;28;20097;-77
2022/06/27 02:43:33;;;;;;;8.85;8.07;;;17.20;99.90;;;;;;5066777;28;20032;-77
2022/06/27 02:46:00;;;;;;;9.85;7.68;;;17.20;99.90;;;;;;5087797;28;20044;-77
2022/06/27 02:48:26;;;;;;;7.53;6.85;;;17.20;99.90;;;;;;5065921;28;20093;-77
2022/06/27 02:50:56;;;;;;;10.38;7.78;;;17.20;99.90;;;;;;5067053;28;20059;-77
2022/06/27 02:53:39;;;;;;;8.98;8.05;;;17.20;99.90;;;;;;5065701;28;20489;-77
2022/06/27 02:56:09;;;;;;;10.10;9.07;;;17.10;99.90;;;;;;5068544;28;20035;-77
2022/06/27 02:59:06;;;;;;;13.32;8.52;;;17.30;99.90;;;;;;5063500;28;20036;-77
2022/06/27 03:01:33;;;;;;;9.77;8.82;;;17.20;99.90;;;;;;5078660;28;20123;-77
2022/06/27 03:04:01;;;;;;;9.90;9.00;;;17.20;99.90;;;;;;5065600;28;20057;-76
2022/06/27 03:06:28;;;;;;;9.77;8.77;;;17.20;99.90;;;;;;5064507;28;20040;-78
2022/06/27 03:08:54;;;;;;;10.13;8.55;;;17.20;99.90;;;;;;5100110;28;20506;-77
2022/06/27 03:11:22;;;;;;;11.50;8.65;;;17.10;99.90;;;;;;5067005;28;20079;-77
2022/06/27 03:13:49;;;;;;;8.15;7.40;;;17.10;99.90;;;;;;5052924;28;20084;-78
2022/06/27 03:16:15;;;;;;;9.77;8.63;;;17.30;99.90;;;;;;5068617;28;20048;-77
2022/06/27 03:18:42;;;;;;;8.50;7.68;;;17.10;99.90;;;;;;5047389;28;20063;-77
2022/06/27 03:21:08;;;;;;;8.55;7.63;;;17.20;99.90;;;;;;5051198;28;20051;-77
2022/06/27 03:23:34;;;;;;;10.60;8.90;;;17.20;99.90;;;;;;5064734;28;20040;-77
2022/06/27 03:25:59;;;;;;;10.27;9.07;;;17.20;99.90;;;;;;5083706;28;20495;-77
2022/06/27 03:28:25;;;;;;;10.57;9.48;;;17.70;99.90;;;;;;5069601;28;20040;-77
2022/06/27 03:30:51;;;;;;;10.35;9.45;;;17.10;99.90;;;;;;5065496;28;20051;-77
2022/06/27 03:33:17;;;;;;;10.10;9.20;;;17.10;99.90;;;;;;5086962;28;20043;-77
2022/06/27 03:35:43;;;;;;;11.07;9.88;;;17.40;99.90;;;;;;5083614;28;20036;-75
2022/06/27 03:38:14;;;;;;;13.15;10.15;;;17.10;99.90;;;;;;5068595;28;20032;-78
2022/06/27 03:40:40;;;;;;;10.93;8.73;;;17.10;99.90;;;;;;5046953;28;20483;-78
2022/06/27 03:43:06;;;;;;;12.57;9.77;;;17.10;99.90;;;;;;5051092;28;20255;-78
2022/06/27 03:45:31;;;;;;;11.57;10.30;;;17.50;99.90;;;;;;5069106;28;20032;-78
2022/06/27 03:47:59;;;;;;;10.90;9.90;;;17.10;99.90;;;;;;5049134;28;20818;-78
2022/06/27 03:50:26;;;;;;;11.52;10.35;;;17.10;99.90;;;;;;5068777;28;20040;-77
2022/06/27 03:52:54;;;;;;;10.30;9.30;;;17.10;99.90;;;;;;5063126;28;20097;-77
2022/06/27 03:55:20;;;;;;;9.23;8.45;;;17.10;99.90;;;;;;5068046;28;20040;-77
2022/06/27 03:57:57;;;;;;;9.85;8.85;;;17.10;99.90;;;;;;5047430;28;20371;-77
2022/06/27 04:00:25;;;;;;;11.10;10.00;;;17.70;99.90;;;;;;5066820;28;20040;-78
2022/06/27 04:02:54;;;;;;;12.40;10.80;;;17.10;99.90;;;;;;5046994;28;20051;-77
2022/06/27 04:05:20;;;;;;;12.85;10.73;;;17.60;99.90;;;;;;5084729;28;20222;-78
2022/06/27 04:07:45;;;;;;;11.25;10.15;;;17.10;99.90;;;;;;5067761;28;20495;-78
2022/06/27 04:10:12;;;;;;;13.35;11.50;;;17.10;99.90;;;;;;5083626;28;20032;-78
2022/06/27 04:12:41;;;;;;;11.60;10.60;;;17.10;99.90;;;;;;5068305;28;20042;-77
2022/06/27 04:15:08;;;;;;;13.60;12.18;;;17.00;99.90;;;;;;5084155;28;20039;-77
2022/06/27 04:17:34;;;;;;;12.25;11.15;;;17.00;99.90;;;;;;5053159;28;20048;-78
2022/06/27 04:20:00;;;;;;;13.95;11.80;;;17.60;99.90;;;;;;5067720;28;20048;-76
2022/06/27 04:22:25;;;;;;;17.50;11.88;;;17.10;99.90;;;;;;5072634;28;20043;-77
2022/06/27 04:24:51;;;;;;;15.20;13.35;;;17.20;99.90;;;;;;5049521;28;20052;-77
2022/06/27 04:27:20;;;;;;;15.18;12.27;;;17.60;99.90;;;;;;5073154;28;20051;-76
2022/06/27 04:29:48;;;;;;;15.65;14.02;;;17.20;99.90;;;;;;5065608;28;20036;-77
2022/06/27 04:32:15;;;;;;;14.75;13.45;;;17.10;99.90;;;;;;5073172;28;20518;-77
2022/06/27 04:34:41;;;;;;;13.70;12.32;;;16.80;99.90;;;;;;5089879;28;20093;-78
2022/06/27 04:37:07;;;;;;;16.77;15.05;;;17.00;99.90;;;;;;5052965;28;20585;-77
2022/06/27 04:39:43;;;;;;;16.23;14.68;;;17.00;99.90;;;;;;5090349;28;20046;-77
2022/06/27 04:42:09;;;;;;;15.68;14.00;;;16.90;99.90;;;;;;5053268;28;20041;-77
2022/06/27 04:44:40;;;;;;;15.20;12.82;;;17.00;99.90;;;;;;5056355;28;20085;-77
2022/06/27 04:47:08;;;;;;;18.27;15.40;;;16.90;99.90;;;;;;5067278;28;20495;-77
2022/06/27 04:49:38;;;;;;;18.40;16.58;;;17.00;99.90;;;;;;5090039;28;20040;-77
2022/06/27 04:52:07;;;;;;;15.55;13.80;;;17.40;99.90;;;;;;5086703;28;20131;-77
2022/06/27 04:54:36;;;;;;;17.00;15.07;;;16.90;99.90;;;;;;5050231;28;20036;-78
2022/06/27 04:57:03;;;;;;;17.38;15.65;;;16.70;99.90;;;;;;5085144;28;20059;-78
2022/06/27 04:59:32;;;;;;;17.52;15.70;;;16.90;99.90;;;;;;5089473;28;20038;-77
2022/06/27 05:01:57;;;;;;;15.90;14.40;;;16.90;99.90;;;;;;5088902;28;20109;-77
2022/06/27 05:04:24;;;;;;;17.73;16.00;;;16.90;99.90;;;;;;5070429;28;20047;-77
2022/06/27 05:06:50;;;;;;;17.45;14.80;;;16.90;99.90;;;;;;5085648;28;20047;-77
2022/06/27 05:09:16;;;;;;;14.48;12.98;;;16.90;99.90;;;;;;5088398;28;20090;-77
2022/06/27 05:11:45;;;;;;;16.10;14.32;;;17.10;99.90;;;;;;5066427;28;20055;-77
2022/06/27 05:14:10;;;;;;;12.48;11.35;;;17.10;99.90;;;;;;5072271;28;20039;-77
2022/06/27 05:16:36;;;;;;;12.68;11.60;;;17.00;99.90;;;;;;5065988;28;20411;-78
2022/06/27 05:19:02;;;;;;;12.70;11.50;;;16.80;99.90;;;;;;5086056;28;20043;-78
2022/06/27 05:21:28;;;;;;;11.73;10.73;;;18.20;99.90;;;;;;5071748;28;20498;-78
2022/06/27 05:23:54;;;;;;;11.15;10.13;;;17.00;99.90;;;;;;5067497;28;20558;-78
2022/06/27 05:26:20;;;;;;;10.40;9.45;;;17.00;99.90;;;;;;5070364;28;20174;-78
2022/06/27 05:28:46;;;;;;;12.18;9.50;;;17.00;99.90;;;;;;5066861;28;20036;-78
2022/06/27 05:31:11;;;;;;;10.82;9.73;;;17.00;99.90;;;;;;5068162;28;20044;-78
2022/06/27 05:33:38;;;;;;;9.55;8.75;;;17.70;99.90;;;;;;5087691;28;20036;-77
2022/06/27 05:36:05;;;;;;;8.35;7.55;;;17.00;99.90;;;;;;5052747;28;20036;-77
2022/06/27 05:38:31;;;;;;;7.55;6.55;;;17.00;99.90;;;;;;5065574;28;20111;-78
2022/06/27 05:40:58;;;;;;;7.07;6.47;;;17.00;99.90;;;;;;5051491;28;20044;-78
2022/06/27 05:43:24;;;;;;;7.53;6.15;;;17.30;99.90;;;;;;5090200;28;20028;-79
2022/06/27 05:45:49;;;;;;;6.20;5.60;;;17.00;99.90;;;;;;5050277;28;20524;-78
2022/06/27 05:48:15;;;;;;;5.65;5.13;;;16.90;99.90;;;;;;5071238;28;20111;-78
2022/06/27 05:50:41;;;;;;;4.82;4.43;;;16.70;99.90;;;;;;5066473;28;20078;-78
2022/06/27 05:53:06;;;;;;;4.38;4.00;;;17.60;99.90;;;;;;5050157;28;20110;-78
2022/06/27 05:55:32;;;;;;;6.75;4.25;;;16.90;99.90;;;;;;5048576;28;20063;-78
2022/06/27 05:58:00;;;;;;;4.38;3.92;;;16.90;99.90;;;;;;5086169;28;20050;-76
2022/06/27 06:00:27;;;;;;;4.95;4.45;;;17.60;99.90;;;;;;5070915;28;20509;-77
2022/06/27 06:02:54;;;;;;;5.57;4.05;;;16.90;99.90;;;;;;5065627;28;20402;-76
2022/06/27 06:05:21;;;;;;;4.28;3.55;;;17.20;99.90;;;;;;5069002;28;20076;-77
2022/06/27 06:07:46;;;;;;;3.50;3.20;;;17.40;99.90;;;;;;5082655;28;20069;-77
2022/06/27 06:10:13;;;;;;;3.10;2.50;;;17.00;99.90;;;;;;5051220;28;20120;-77
2022/06/27 06:12:39;;;;;;;3.40;2.25;;;17.00;99.90;;;;;;5070234;28;20122;-77
2022/06/27 06:15:05;;;;;;;4.40;2.70;;;17.00;99.90;;;;;;5069662;28;20628;-76
2022/06/27 06:17:34;;;;;;;2.70;2.30;;;17.00;99.90;;;;;;5049939;28;20066;-77
2022/06/27 06:20:03;;;;;;;9.63;6.18;;;17.00;99.90;;;;;;5070704;28;20616;-77
2022/06/27 06:22:28;;;;;;;4.80;4.40;;;17.00;99.90;;;;;;5051807;28;20028;-76
2022/06/27 06:24:54;;;;;;;2.47;2.38;;;17.30;99.90;;;;;;5086992;28;20376;-77
2022/06/27 06:27:21;;;;;;;4.28;2.40;;;17.00;99.90;;;;;;5053166;28;20082;-78
2022/06/27 06:29:47;;;;;;;4.07;2.55;;;17.00;99.90;;;;;;5053216;28;20044;-78
2022/06/27 06:32:13;;;;;;;4.30;2.50;;;17.10;99.90;;;;;;5083659;28;20473;-79
2022/06/27 06:34:41;;;;;;;1.88;1.77;;;17.00;99.90;;;;;;5053550;28;20029;-75
2022/06/27 06:37:08;;;;;;;2.72;1.70;;;17.00;99.90;;;;;;5087817;28;20048;-76
2022/06/27 06:39:34;;;;;;;2.05;1.83;;;17.00;99.90;;;;;;5070398;28;20043;-77
2022/06/27 06:41:59;;;;;;;1.83;1.63;;;17.10;99.90;;;;;;5047904;28;20048;-70
2022/06/27 06:44:25;;;;;;;2.90;2.03;;;17.00;99.90;;;;;;5070360;28;20078;-74
2022/06/27 06:46:54;;;;;;;2.38;1.73;;;17.30;99.90;;;;;;5062453;28;20081;-75
2022/06/27 06:49:22;;;;;;;2.47;1.92;;;17.10;99.90;;;;;;5093611;28;20098;-75
2022/06/27 06:51:49;;;;;;;2.85;1.98;;;17.30;99.90;;;;;;5070761;28;20044;-74
2022/06/27 06:54:20;;;;;;;2.33;1.83;;;17.10;99.90;;;;;;5053984;28;20076;-74
2022/06/27 06:56:50;;;;;;;3.22;1.50;;;17.00;99.90;;;;;;5075621;28;20040;-75
2022/06/27 06:59:19;;;;;;;3.88;1.70;;;17.00;99.90;;;;;;5053038;28;20051;-76
2022/06/27 07:01:47;;;;;;;2.63;1.65;;;17.00;99.90;;;;;;5091682;28;20131;-75
2022/06/27 07:04:14;;;;;;;2.10;1.92;;;18.00;99.90;;;;;;5052053;28;20055;-76
2022/06/27 07:06:40;;;;;;;1.98;1.88;;;17.00;99.90;;;;;;5072183;28;20039;-75
2022/06/27 07:09:06;;;;;;;2.03;1.85;;;17.10;99.90;;;;;;5087790;28;20113;-76
2022/06/27 07:11:33;;;;;;;1.83;1.60;;;17.10;99.90;;;;;;5090293;28;20459;-76
2022/06/27 07:13:59;;;;;;;1.75;1.63;;;17.00;99.90;;;;;;5069295;28;20088;-75
2022/06/27 07:16:26;;;;;;;1.58;1.42;;;17.30;99.90;;;;;;5084135;28;20052;-73
2022/06/27 07:18:54;;;;;;;2.13;1.92;;;17.00;99.90;;;;;;5067674;28;20052;-75
2022/06/27 07:21:21;;;;;;;2.03;1.40;;;17.50;99.90;;;;;;5066884;28;20052;-76
2022/06/27 07:23:48;;;;;;;1.80;1.70;;;17.00;99.90;;;;;;5068119;28;20044;-76
2022/06/27 07:26:19;;;;;;;2.80;1.40;;;17.30;99.90;;;;;;5050340;28;20131;-74
2022/06/27 07:28:46;;;;;;;3.03;2.70;;;17.50;99.90;;;;;;5063790;28;20105;-75
2022/06/27 07:31:14;;;;;;;2.65;1.60;;;17.10;99.90;;;;;;5085038;28;20052;-75
2022/06/27 07:33:41;;;;;;;2.80;1.65;;;17.10;99.90;;;;;;5062138;28;20047;-76
2022/06/27 07:36:11;;;;;;;1.17;1.17;;;17.20;99.90;;;;;;5083590;28;20028;-75
2022/06/27 07:38:38;;;;;;;2.75;1.60;;;17.10;99.90;;;;;;5084801;28;20117;-76
2022/06/27 07:41:08;;;;;;;1.85;1.73;;;17.20;99.90;;;;;;5045968;28;20043;-75
2022/06/27 07:43:34;;;;;;;3.20;1.90;;;17.10;99.90;;;;;;5048593;28;20045;-74
2022/06/27 07:46:02;;;;;;;2.00;1.90;;;17.20;99.90;;;;;;5087463;28;20052;-77
2022/06/27 07:48:28;;;;;;;2.38;1.60;;;18.20;99.90;;;;;;5084654;28;20491;-77
2022/06/27 07:50:56;;;;;;;1.30;1.20;;;17.10;99.90;;;;;;5098858;28;20383;-78
2022/06/27 07:53:22;;;;;;;1.33;1.20;;;17.20;99.90;;;;;;5087426;28;20028;-74
2022/06/27 07:55:52;;;;;;;1.08;1.08;;;17.20;99.90;;;;;;5089355;28;20032;-77
2022/06/27 07:58:33;;;;;;;1.10;1.10;;;17.60;99.90;;;;;;5089587;28;20419;-76
2022/06/27 08:01:04;;;;;;;1.88;1.20;;;17.20;99.90;;;;;;5055510;28;20452;-75
2022/06/27 08:03:37;;;;;;;2.83;1.13;;;17.20;99.90;;;;;;5086032;28;20043;-74
2022/06/27 08:06:09;;;;;;;1.20;1.10;;;17.20;99.90;;;;;;5072043;28;20563;-76
2022/06/27 08:08:37;;;;;;;1.35;1.10;;;17.30;99.90;;;;;;5048512;28;20037;-77
2022/06/27 08:11:05;;;;;;;1.27;1.17;;;17.20;99.90;;;;;;5071448;28;20395;-74
2022/06/27 08:13:31;;;;;;;3.67;1.40;;;17.40;99.90;;;;;;5051640;28;20039;-72
2022/06/27 08:15:59;;;;;;;0.90;0.90;;;17.60;99.90;;;;;;5055128;28;20340;-72
2022/06/27 08:18:25;;;;;;;1.33;1.23;;;17.40;99.90;;;;;;5054738;28;20040;-73
2022/06/27 08:20:52;;;;;;;2.05;1.30;;;17.40;99.90;;;;;;5055643;28;20127;-77
2022/06/27 08:23:18;;;;;;;1.80;1.13;;;17.40;99.90;;;;;;5089270;28;20380;-76
2022/06/27 08:25:46;;;;;;;1.42;1.20;;;18.00;99.90;;;;;;5087064;28;20249;-76
2022/06/27 08:28:15;;;;;;;0.80;0.80;;;17.50;99.90;;;;;;5057647;28;20040;-75
2022/06/27 08:30:41;;;;;;;1.23;0.95;;;17.70;99.90;;;;;;5097898;28;20415;-75
2022/06/27 08:33:08;;;;;;;1.25;0.93;;;17.70;99.90;;;;;;5073346;28;20040;-74
2022/06/27 08:35:35;;;;;;;1.52;1.42;;;17.90;99.90;;;;;;5097973;28;20078;-75
2022/06/27 08:38:01;;;;;;;1.60;1.30;;;17.70;99.90;;;;;;5075369;28;20051;-76
2022/06/27 08:40:28;;;;;;;2.90;1.88;;;17.70;99.90;;;;;;5073015;28;20571;-76
2022/06/27 08:42:57;;;;;;;4.40;4.00;;;17.70;99.90;;;;;;5087124;28;20048;-76
2022/06/27 08:45:25;;;;;;;3.08;2.10;;;17.70;99.90;;;;;;5097630;28;20371;-76
2022/06/27 08:47:54;;;;;;;2.35;1.45;;;17.70;99.90;;;;;;5072178;28;20063;-75
2022/06/27 08:50:20;;;;;;;1.25;1.02;;;17.70;99.90;;;;;;5097061;28;20048;-76
2022/06/27 08:52:47;;;;;;;1.70;1.20;;;17.70;99.90;;;;;;5091669;28;20040;-76
2022/06/27 08:55:12;;;;;;;1.60;1.50;;;18.00;99.90;;;;;;5077022;28;20036;-76
2022/06/27 08:57:43;;;;;;;1.38;1.20;;;18.10;99.90;;;;;;5070961;28;20040;-73
2022/06/27 09:00:11;;;;;;;1.52;1.20;;;18.00;99.90;;;;;;5075462;28;20052;-74
2022/06/27 09:02:42;;;;;;;1.40;0.80;;;17.70;99.90;;;;;;5069385;28;20124;-72
2022/06/27 09:05:24;;;;;;;1.42;1.30;;;17.70;99.90;;;;;;5052818;28;20028;-76
2022/06/27 09:07:55;;;;;;;1.52;0.90;;;18.50;99.90;;;;;;5085162;28;20465;-75
2022/06/27 09:10:42;;;;;;;1.67;0.82;;;17.90;99.90;;;;;;5081206;28;20067;-75
2022/06/27 09:13:13;;;;;;;1.23;0.80;;;17.90;99.90;;;;;;5055615;28;20039;-75
2022/06/27 09:15:55;;;;;;;1.75;1.10;;;18.00;99.90;;;;;;5085491;28;20115;-74
2022/06/27 09:18:27;;;;;;;2.80;1.00;;;18.80;99.90;;;;;;5053866;28;20056;-76
2022/06/27 09:20:57;;;;;;;1.70;0.85;;;18.10;99.90;;;;;;5085127;28;20075;-73
2022/06/27 09:23:39;;;;;;;0.98;0.98;;;18.10;99.90;;;;;;5068314;28;20075;-74
2022/06/27 09:26:28;;;;;;;2.15;0.80;;;18.20;99.90;;;;;;5089306;28;20516;-75
2022/06/27 09:28:56;;;;;;;2.05;0.80;;;18.20;99.90;;;;;;5052277;28;20039;-75
2022/06/27 09:31:31;;;;;;;1.20;0.80;;;18.20;99.90;;;;;;5070993;28;20040;-75
2022/06/27 09:34:26;;;;;;;2.58;0.77;;;18.10;99.90;;;;;;5054254;28;20141;-76
2022/06/27 09:36:56;;;;;;;3.90;0.90;;;18.20;99.90;;;;;;5082105;28;20043;-74
2022/06/27 09:39:28;;;;;;;2.85;1.20;;;18.20;99.90;;;;;;5067742;28;20036;-76
2022/06/27 09:42:06;;;;;;;1.60;0.68;;;18.20;99.90;;;;;;5069928;28;20051;-76
2022/06/27 09:44:44;;;;;;;2.13;1.17;;;18.20;99.90;;;;;;5066331;28;20032;-76
2022/06/27 09:47:17;;;;;;;1.17;0.90;;;18.20;99.90;;;;;;5087847;28;20048;-75
2022/06/27 09:49:52;;;;;;;1.35;1.10;;;18.20;99.90;;;;;;5080498;28;20036;-75
2022/06/27 09:52:19;;;;;;;2.28;1.20;;;18.20;99.90;;;;;;5086751;28;20043;-75
2022/06/27 09:54:47;;;;;;;1.02;1.00;;;18.70;99.90;;;;;;5070161;28;20876;-75
2022/06/27 09:57:13;;;;;;;2.80;1.23;;;18.10;99.90;;;;;;5068937;28;20044;-74
2022/06/27 09:59:40;;;;;;;1.88;1.20;;;18.20;99.90;;;;;;5051551;28;20808;-75
2022/06/27 10:02:06;;;;;;;1.38;1.27;;;18.40;99.90;;;;;;5070755;28;20317;-75
2022/06/27 10:04:37;;;;;;;3.33;2.08;;;18.20;99.90;;;;;;5069791;28;20046;-74
2022/06/27 10:07:06;;;;;;;4.93;1.33;;;18.30;99.90;;;;;;5070943;28;20036;-77
2022/06/27 10:09:35;;;;;;;2.38;1.17;;;18.50;99.90;;;;;;5051363;28;20098;-75
2022/06/27 10:12:23;;;;;;;2.47;2.20;;;18.10;99.90;;;;;;5070079;28;20044;-74
2022/06/27 10:15:10;;;;;;;4.15;2.60;;;19.00;99.90;;;;;;5080679;28;20639;-74
2022/06/27 10:17:38;;;;;;;2.35;1.98;;;18.20;99.90;;;;;;5069295;28;20059;-73
2022/06/27 10:20:09;;;;;;;2.63;2.28;;;19.00;99.90;;;;;;5085025;28;20508;-75
2022/06/27 10:22:35;;;;;;;4.22;2.55;;;18.30;99.90;;;;;;5070929;28;20462;-75
2022/06/27 10:25:26;;;;;;;2.85;2.15;;;18.30;99.90;;;;;;5083906;28;20139;-75
2022/06/27 10:28:10;;;;;;;2.97;2.30;;;18.40;99.90;;;;;;5086930;28;20048;-75
2022/06/27 10:30:43;;;;;;;2.28;1.90;;;18.40;99.90;;;;;;5087019;28;20051;-75
2022/06/27 10:33:28;;;;;;;5.00;2.08;;;18.40;99.90;;;;;;5065811;28;20498;-75
2022/06/27 10:35:57;;;;;;;1.90;1.80;;;18.40;99.90;;;;;;5068715;28;20051;-75
2022/06/27 10:38:38;;;;;;;4.30;2.28;;;18.50;99.90;;;;;;5070671;28;20036;-75
2022/06/27 10:41:10;;;;;;;3.40;2.63;;;18.40;99.90;;;;;;5086643;28;20044;-75
2022/06/27 10:43:35;;;;;;;3.00;2.80;;;18.40;99.90;;;;;;5087049;28;20437;-75
2022/06/27 10:46:10;;;;;;;4.60;3.17;;;18.40;99.90;;;;;;5052538;28;20052;-74
2022/06/27 10:48:47;;;;;;;3.75;3.13;;;18.40;99.90;;;;;;5053425;28;20052;-75
2022/06/27 10:51:27;;;;;;;3.08;2.78;;;18.40;99.90;;;;;;5065240;28;20048;-75
2022/06/27 10:53:59;;;;;;;4.35;3.15;;;18.40;99.90;;;;;;5065077;28;20102;-75
2022/06/27 10:56:35;;;;;;;3.22;2.97;;;18.40;99.90;;;;;;5053686;28;20067;-75
2022/06/27 10:59:05;;;;;;;4.95;3.90;;;18.50;99.90;;;;;;5088412;28;20693;-75
2022/06/27 11:01:32;;;;;;;4.80;4.07;;;18.50;99.90;;;;;;5047414;28;20049;-75
2022/06/27 11:03:59;;;;;;;4.57;3.95;;;18.70;99.90;;;;;;5068126;28;20118;-74
2022/06/27 11:06:25;;;;;;;5.03;4.35;;;18.50;99.90;;;;;;5052679;28;20039;-75
2022/06/27 11:08:53;;;;;;;3.95;3.55;;;18.60;99.90;;;;;;5050133;28;20036;-75
2022/06/27 11:11:26;;;;;;;4.43;3.70;;;18.60;99.90;;;;;;5068689;28;20137;-75
2022/06/27 11:13:54;;;;;;;4.57;3.70;;;18.60;99.90;;;;;;5073197;28;20040;-74
2022/06/27 11:16:32;;;;;;;3.83;3.53;;;18.80;99.90;;;;;;5059317;28;20122;-75
2022/06/27 11:19:02;;;;;;;3.90;3.63;;;18.30;99.90;;;;;;5065761;28;20324;-75
2022/06/27 11:21:38;;;;;;;5.55;4.95;;;18.60;99.90;;;;;;5093961;28;20044;-75
2022/06/27 11:24:10;;;;;;;5.80;4.35;;;18.60;99.90;;;;;;5066922;28;20044;-75
2022/06/27 11:26:48;;;;;;;4.43;4.05;;;19.20;99.90;;;;;;5069748;28;20063;-75
2022/06/27 11:32:14;;;;;;;4.65;3.72;;;18.80;99.90;;;;;;5098966;28;20055;-75
2022/06/27 11:34:48;;;;;;;3.33;3.03;;;18.70;99.90;;;;;;5074537;28;20044;-75
2022/06/27 11:37:16;;;;;;;8.27;6.57;;;18.70;99.90;;;;;;5076030;28;20043;-74
2022/06/27 11:39:56;;;;;;;7.50;6.80;;;18.70;99.90;;;;;;5072556;28;20127;-74
2022/06/27 11:42:31;;;;;;;4.47;4.00;;;18.70;99.90;;;;;;5052259;28;20044;-75
2022/06/27 11:45:05;;;;;;;3.88;3.08;;;18.70;99.90;;;;;;5057507;28;20040;-75
2022/06/27 11:47:34;;;;;;;4.35;3.60;;;18.70;99.90;;;;;;5048506;28;22214;-75
2022/06/27 11:50:33;;;;;;;10.40;5.70;;;18.80;99.90;;;;;;5064093;28;20230;-76
2022/06/27 11:53:02;;;;;;;11.80;5.38;;;18.70;99.90;;;;;;5084209;28;20570;-78
2022/06/27 11:55:27;;;;;;;5.25;4.55;;;18.70;99.90;;;;;;5072012;28;20028;-77
2022/06/27 11:57:55;;;;;;;4.13;3.63;;;18.90;99.90;;;;;;5055249;28;20047;-77
2022/06/27 12:00:29;;;;;;;2.83;2.58;;;18.80;99.90;;;;;;5091404;28;20024;-75
2022/06/27 12:03:05;;;;;;;3.42;2.70;;;18.80;99.90;;;;;;5070395;28;20109;-76
2022/06/27 12:05:31;;;;;;;6.35;2.63;;;18.80;99.90;;;;;;5053550;28;20035;-77
2022/06/27 12:08:05;;;;;;;3.75;2.70;;;19.50;99.90;;;;;;5055578;28;20101;-76
2022/06/27 12:10:44;;;;;;;3.30;2.70;;;18.80;99.90;;;;;;5072271;28;20123;-77
2022/06/27 12:13:14;;;;;;;2.85;2.53;;;18.90;99.90;;;;;;5054956;28;20051;-75
2022/06/27 12:15:42;;;;;;;5.72;2.10;;;18.80;99.90;;;;;;5072068;28;20150;-75
2022/06/27 12:18:12;;;;;;;3.10;2.35;;;18.80;99.90;;;;;;5053496;28;20033;-76
2022/06/27 12:20:39;;;;;;;1.90;1.80;;;19.30;99.90;;;;;;5072522;28;20062;-75
2022/06/27 12:23:05;;;;;;;3.00;1.90;;;18.90;99.90;;;;;;5069627;28;20072;-76
2022/06/27 12:25:31;;;;;;;3.90;2.03;;;18.90;99.90;;;;;;5054143;28;20506;-75
2022/06/27 12:27:57;;;;;;;2.25;2.05;;;19.00;99.90;;;;;;5067855;28;20458;-77
2022/06/27 12:30:26;;;;;;;2.40;2.20;;;19.00;99.90;;;;;;5070568;28;20055;-78
2022/06/27 12:32:52;;;;;;;10.02;2.47;;;19.00;99.90;;;;;;5087039;28;20181;-77
2022/06/27 12:35:18;;;;;;;2.72;2.28;;;19.00;99.90;;;;;;5082716;28;20052;-77
2022/06/27 12:37:44;;;;;;;3.83;2.72;;;19.00;99.90;;;;;;5069341;28;20519;-78
2022/06/27 12:40:11;;;;;;;13.18;6.60;;;19.50;99.90;;;;;;5070334;28;20040;-77
2022/06/27 12:42:37;;;;;;;17.67;8.40;;;19.10;99.90;;;;;;5089798;28;20484;-76
2022/06/27 12:45:03;;;;;;;15.65;7.82;;;19.20;99.90;;;;;;5089444;28;20032;-78
2022/06/27 12:47:29;;;;;;;10.07;4.93;;;19.20;99.90;;;;;;5069970;28;20097;-78
2022/06/27 12:49:55;;;;;;;7.18;3.58;;;19.20;99.90;;;;;;5063685;28;20036;-78
2022/06/27 12:52:21;;;;;;;3.00;2.80;;;19.30;99.90;;;;;;5090246;28;20032;-78
2022/06/27 12:54:46;;;;;;;4.35;2.83;;;19.20;99.90;;;;;;5090512;28;20067;-78